Time;durP1;ratioP1;P1;durP2;ratioP2;P2;SDS_P1;SDS_P2;PMS_P1;PMS_P2;Temp;Humidity;BMP_temperature;BMP_pressure;BME280_temperature;BME280_humidity;BME280_pressure;Samples;Min_cycle;Max_cycle;Signal;HPM_P1;HPM_P2
2021/12/18 00:01:10;;;;;;;21.37;13.90;;;8.10;1.00;;;;;;5082121;28;20202;-60
2021/12/18 00:03:37;;;;;;;20.50;12.63;;;8.00;1.00;;;;;;5082453;28;20194;-60
2021/12/18 00:06:04;;;;;;;17.80;13.00;;;8.10;1.00;;;;;;5083796;28;20308;-60
2021/12/18 00:08:31;;;;;;;30.90;18.17;;;8.10;1.00;;;;;;5083152;28;20221;-60
2021/12/18 00:10:58;;;;;;;28.27;16.70;;;8.10;1.00;;;;;;5081911;28;20202;-60
2021/12/18 00:13:25;;;;;;;18.57;12.87;;;8.10;1.00;;;;;;5086178;28;20194;-60
2021/12/18 00:15:52;;;;;;;17.70;11.50;;;8.10;1.00;;;;;;5080962;28;20222;-60
2021/12/18 00:18:20;;;;;;;15.53;10.93;;;8.10;1.00;;;;;;5082970;28;20271;-60
2021/12/18 00:20:47;;;;;;;17.30;11.93;;;8.10;1.00;;;;;;5078415;28;20224;-60
2021/12/18 00:23:15;;;;;;;18.63;13.43;;;8.00;1.00;;;;;;5081409;28;20248;-60
2021/12/18 00:25:43;;;;;;;19.53;12.87;;;8.00;1.00;;;;;;5077897;28;20197;-61
2021/12/18 00:28:10;;;;;;;19.47;11.50;;;8.00;18.00;;;;;;5097366;28;20708;-60
2021/12/18 00:30:38;;;;;;;21.40;11.57;;;8.00;95.20;;;;;;5080033;28;20226;-60
2021/12/18 00:33:06;;;;;;;18.33;11.57;;;8.00;99.90;;;;;;5080833;28;20552;-60
2021/12/18 00:35:33;;;;;;;19.23;11.77;;;8.00;99.90;;;;;;5080829;28;20190;-60
2021/12/18 00:38:02;;;;;;;19.43;12.70;;;8.00;1.00;;;;;;5074600;28;20568;-60
2021/12/18 00:40:43;;;;;;;24.20;12.70;;;8.00;1.00;;;;;;5067389;28;20289;-60
2021/12/18 00:43:28;;;;;;;21.00;13.20;;;8.00;1.00;;;;;;5062221;28;20224;-60
2021/12/18 00:45:55;;;;;;;31.83;20.97;;;8.00;1.00;;;;;;5064566;28;20198;-60
2021/12/18 00:48:23;;;;;;;25.53;15.10;;;7.90;1.00;;;;;;5070096;28;20213;-60
2021/12/18 00:50:51;;;;;;;42.60;24.93;;;7.80;1.00;;;;;;5064584;28;20277;-59
2021/12/18 00:53:18;;;;;;;29.63;16.83;;;7.80;99.90;;;;;;5067676;28;20275;-60
2021/12/18 00:55:46;;;;;;;28.37;18.50;;;7.80;99.90;;;;;;5069918;28;20198;-60
2021/12/18 00:58:13;;;;;;;23.63;14.57;;;7.70;99.90;;;;;;5079979;28;20207;-61
2021/12/18 01:00:42;;;;;;;26.13;16.57;;;7.70;1.00;;;;;;5065809;28;20201;-58
2021/12/18 01:03:19;;;;;;;26.63;14.30;;;7.70;1.00;;;;;;5066688;28;20831;-59
2021/12/18 01:05:47;;;;;;;25.83;14.23;;;7.70;1.00;;;;;;5068871;28;20214;-59
2021/12/18 01:08:15;;;;;;;22.10;14.07;;;7.70;1.00;;;;;;5083543;28;20689;-58
2021/12/18 01:13:27;;;;;;;22.47;13.23;;;7.70;1.00;;;;;;5065303;28;20198;-58
2021/12/18 01:16:03;;;;;;;20.67;13.00;;;7.70;1.00;;;;;;5077070;28;20665;-58
2021/12/18 01:24:02;;;;;;;19.20;11.13;;;7.70;95.90;;;;;;5080605;28;21880;-59
2021/12/18 01:26:29;;;;;;;20.00;11.53;;;7.70;99.90;;;;;;5063071;28;20762;-58
2021/12/18 01:28:56;;;;;;;23.53;12.20;;;7.60;99.90;;;;;;5095262;28;20696;-60
2021/12/18 01:31:23;;;;;;;22.97;11.30;;;7.60;99.90;;;;;;5075346;28;20218;-59
2021/12/18 01:33:50;;;;;;;21.97;12.67;;;7.60;99.90;;;;;;5082088;28;20222;-59
2021/12/18 01:36:17;;;;;;;19.00;11.97;;;7.60;99.90;;;;;;5079348;28;20271;-60
2021/12/18 01:38:43;;;;;;;21.03;12.10;;;7.60;1.00;;;;;;5081082;28;20269;-60
2021/12/18 01:41:10;;;;;;;20.90;11.33;;;7.60;1.00;;;;;;5093865;28;20270;-60
2021/12/18 01:46:59;;;;;;;17.93;11.33;;;7.50;1.00;;;;;;5037153;28;20231;-59
2021/12/18 01:52:22;;;;;;;17.83;11.43;;;7.60;1.00;;;;;;5070094;28;20249;-59
2021/12/18 01:54:49;;;;;;;20.47;10.80;;;7.70;1.00;;;;;;5078544;28;20222;-59
2021/12/18 01:57:16;;;;;;;21.97;11.83;;;7.70;1.00;;;;;;5085523;28;20197;-59
2021/12/18 01:59:47;;;;;;;17.60;9.97;;;7.70;1.00;;;;;;5082683;28;20244;-59
2021/12/18 02:02:17;;;;;;;15.87;10.57;;;7.60;1.00;;;;;;5080649;28;20203;-59
2021/12/18 02:04:45;;;;;;;16.97;10.80;;;7.60;1.00;;;;;;5080650;28;20186;-59
2021/12/18 02:07:13;;;;;;;20.00;11.07;;;7.70;1.00;;;;;;5083765;28;20281;-59
2021/12/18 02:12:34;;;;;;;23.37;14.77;;;7.70;1.00;;;;;;5083142;28;20190;-58
2021/12/18 02:23:01;;;;;;;33.17;21.83;;;7.80;1.00;;;;;;5083743;28;20194;-59
2021/12/18 02:25:30;;;;;;;49.77;38.53;;;7.70;1.00;;;;;;5081393;28;20665;-59
2021/12/18 02:27:58;;;;;;;34.40;24.03;;;7.70;1.00;;;;;;5081368;28;20511;-59
2021/12/18 02:30:25;;;;;;;31.10;19.70;;;7.70;1.00;;;;;;5082933;28;20287;-59
2021/12/18 02:32:53;;;;;;;26.53;16.47;;;7.70;1.00;;;;;;5081014;28;20196;-59
2021/12/18 02:35:45;;;;;;;27.53;15.33;;;7.70;1.00;;;;;;5081294;28;20550;-59
2021/12/18 02:38:19;;;;;;;24.70;15.53;;;7.70;47.50;;;;;;5084388;28;20281;-59
2021/12/18 02:41:26;;;;;;;48.40;30.37;;;7.70;99.90;;;;;;5084207;28;20516;-59
2021/12/18 02:43:54;;;;;;;36.00;21.70;;;7.70;99.90;;;;;;5082682;28;20194;-59
2021/12/18 02:46:22;;;;;;;37.07;22.37;;;7.70;1.00;;;;;;5080208;28;20224;-59
2021/12/18 02:48:51;;;;;;;35.43;22.43;;;7.70;1.00;;;;;;5083552;28;20215;-59
2021/12/18 02:51:20;;;;;;;41.40;24.23;;;7.60;1.00;;;;;;5082020;28;21289;-59
2021/12/18 02:53:50;;;;;;;35.77;19.90;;;7.70;99.90;;;;;;5081661;28;20283;-59
2021/12/18 02:56:23;;;;;;;41.47;19.73;;;7.60;1.00;;;;;;5081019;28;20206;-60
2021/12/18 02:59:03;;;;;;;40.23;20.70;;;7.60;58.70;;;;;;5078035;28;20289;-59
2021/12/18 03:01:32;;;;;;;39.80;20.73;;;7.60;63.30;;;;;;5063583;28;20202;-60
2021/12/18 03:04:12;;;;;;;43.20;20.93;;;7.50;99.90;;;;;;5078417;28;20251;-59
2021/12/18 03:06:43;;;;;;;41.47;24.93;;;7.50;99.90;;;;;;5084207;28;20187;-59
2021/12/18 03:18:57;;;;;;;42.63;22.27;;;7.50;1.00;;;;;;5080339;28;20206;-59
2021/12/18 03:23:13;;;;;;;50.03;22.73;;;7.60;99.90;;;;;;5067948;28;20212;-59
2021/12/18 03:25:41;;;;;;;46.80;23.83;;;7.60;74.10;;;;;;5065837;28;20196;-59
2021/12/18 03:28:08;;;;;;;48.73;25.07;;;7.60;1.00;;;;;;5087491;28;20267;-59
2021/12/18 03:30:41;;;;;;;43.97;22.87;;;7.70;1.00;;;;;;5080186;28;20222;-59
2021/12/18 03:33:07;;;;;;;47.20;23.57;;;7.70;99.90;;;;;;5083226;28;20198;-59
2021/12/18 03:35:35;;;;;;;44.03;22.57;;;7.70;1.00;;;;;;5081035;28;20182;-59
2021/12/18 03:38:02;;;;;;;50.00;24.47;;;7.60;1.00;;;;;;5081795;28;20275;-59
2021/12/18 03:40:29;;;;;;;47.07;24.03;;;7.70;1.00;;;;;;5083071;28;20194;-59
2021/12/18 03:42:56;;;;;;;47.20;24.23;;;7.70;99.90;;;;;;5082594;28;20229;-58
2021/12/18 03:45:24;;;;;;;48.70;23.73;;;7.70;1.00;;;;;;5080088;28;20300;-58
2021/12/18 03:47:51;;;;;;;51.50;24.07;;;7.60;99.90;;;;;;5079050;28;20688;-58
2021/12/18 03:50:20;;;;;;;50.63;23.93;;;7.60;1.00;;;;;;5075653;28;20190;-59
2021/12/18 03:52:48;;;;;;;51.20;23.77;;;7.60;1.00;;;;;;5080596;28;20681;-59
2021/12/18 03:55:16;;;;;;;51.00;23.20;;;7.50;99.90;;;;;;5062195;28;20225;-59
2021/12/18 03:57:43;;;;;;;46.53;22.70;;;7.50;1.00;;;;;;5080534;28;20217;-60
2021/12/18 04:00:13;;;;;;;46.33;22.67;;;7.50;1.00;;;;;;5080447;28;20285;-59
2021/12/18 04:02:40;;;;;;;50.57;23.90;;;7.60;99.90;;;;;;5079847;28;20205;-60
2021/12/18 04:05:08;;;;;;;47.83;23.50;;;7.60;1.00;;;;;;5081189;28;20194;-60
2021/12/18 04:07:41;;;;;;;50.33;24.07;;;7.60;1.00;;;;;;5079487;28;20622;-60
2021/12/18 04:10:10;;;;;;;49.70;22.07;;;7.60;1.00;;;;;;5078997;28;20185;-59
2021/12/18 04:12:37;;;;;;;49.77;23.07;;;7.60;96.20;;;;;;5081091;28;20224;-59
2021/12/18 04:15:05;;;;;;;52.93;24.67;;;7.60;1.00;;;;;;5077947;28;20195;-60
2021/12/18 04:17:32;;;;;;;54.13;23.27;;;7.60;1.00;;;;;;5076100;28;20247;-60
2021/12/18 04:19:59;;;;;;;55.60;25.23;;;7.60;19.60;;;;;;5079965;28;20627;-59
2021/12/18 04:22:26;;;;;;;56.00;24.27;;;7.50;64.20;;;;;;5083697;28;20629;-59
2021/12/18 04:24:53;;;;;;;51.80;24.90;;;7.50;1.00;;;;;;5087310;28;20193;-59
2021/12/18 04:27:20;;;;;;;56.97;27.40;;;7.50;1.00;;;;;;5080473;28;20217;-59
2021/12/18 04:29:47;;;;;;;56.50;27.23;;;7.50;99.90;;;;;;5065200;28;20308;-59
2021/12/18 04:32:14;;;;;;;62.93;30.63;;;7.50;1.00;;;;;;5067689;28;20190;-60
2021/12/18 04:34:41;;;;;;;56.07;27.20;;;7.50;1.00;;;;;;5064621;28;20278;-60
2021/12/18 04:37:08;;;;;;;57.93;30.80;;;7.50;1.00;;;;;;5066496;28;20202;-60
2021/12/18 04:39:35;;;;;;;58.80;26.93;;;7.50;99.90;;;;;;5082115;28;20202;-60
2021/12/18 04:42:02;;;;;;;64.20;32.90;;;7.50;1.00;;;;;;5063074;28;20727;-60
2021/12/18 04:44:29;;;;;;;60.93;32.07;;;7.50;1.00;;;;;;5072551;28;20773;-59
2021/12/18 04:46:57;;;;;;;62.87;30.90;;;7.50;1.00;;;;;;5083326;28;20202;-60
2021/12/18 04:49:24;;;;;;;57.97;29.53;;;7.50;1.00;;;;;;5079184;28;20213;-60
2021/12/18 04:51:51;;;;;;;60.70;28.97;;;7.50;1.00;;;;;;5081293;28;20637;-60
2021/12/18 04:54:18;;;;;;;51.23;24.80;;;7.50;1.00;;;;;;5080333;28;20240;-60
2021/12/18 04:56:44;;;;;;;59.53;30.73;;;7.50;54.80;;;;;;5080954;28;20281;-58
2021/12/18 04:59:12;;;;;;;59.03;28.27;;;7.40;1.00;;;;;;5080775;28;20285;-59
2021/12/18 05:01:40;;;;;;;50.23;25.23;;;7.40;99.90;;;;;;5080567;28;20265;-59
2021/12/18 05:04:11;;;;;;;55.73;27.67;;;7.50;1.00;;;;;;5083668;28;20218;-59
2021/12/18 05:06:43;;;;;;;66.60;29.43;;;7.50;1.00;;;;;;5080425;28;20561;-59
2021/12/18 05:09:10;;;;;;;63.13;27.57;;;7.50;1.00;;;;;;5081051;28;20253;-59
2021/12/18 05:11:39;;;;;;;61.03;27.83;;;7.50;1.00;;;;;;5080253;28;20302;-59
2021/12/18 05:14:06;;;;;;;66.03;29.53;;;7.50;1.00;;;;;;5081830;28;20265;-59
2021/12/18 05:16:33;;;;;;;61.60;28.47;;;7.50;1.00;;;;;;5084080;28;20272;-59
2021/12/18 05:19:01;;;;;;;58.47;26.73;;;7.60;15.90;;;;;;5085173;28;20195;-59
2021/12/18 05:21:28;;;;;;;55.80;25.17;;;7.60;1.00;;;;;;5087270;28;20240;-59
2021/12/18 05:23:55;;;;;;;56.20;25.70;;;7.50;1.00;;;;;;5088398;28;20657;-59
2021/12/18 05:26:22;;;;;;;59.37;28.63;;;7.60;1.00;;;;;;5086003;28;20210;-60
2021/12/18 05:28:49;;;;;;;63.40;29.27;;;7.50;1.00;;;;;;5082871;28;20212;-60
2021/12/18 05:31:17;;;;;;;60.40;29.10;;;7.50;1.00;;;;;;5085172;28;20467;-60
2021/12/18 05:33:46;;;;;;;60.37;28.60;;;7.50;1.00;;;;;;5084814;28;20713;-60
2021/12/18 05:38:59;;;;;;;70.13;34.03;;;7.50;1.00;;;;;;5086385;28;20233;-60
2021/12/18 05:41:26;;;;;;;91.37;42.93;;;7.50;1.00;;;;;;5083289;28;20217;-60
2021/12/18 05:43:53;;;;;;;61.87;32.67;;;7.50;1.00;;;;;;5086023;28;20187;-60
2021/12/18 05:46:21;;;;;;;78.93;35.60;;;7.50;16.50;;;;;;5068878;28;20194;-60
2021/12/18 05:48:48;;;;;;;83.57;41.33;;;7.60;91.10;;;;;;5088826;27;20687;-60
2021/12/18 05:51:17;;;;;;;84.70;42.27;;;7.60;99.90;;;;;;5071376;28;20248;-60
2021/12/18 05:53:46;;;;;;;75.63;38.27;;;7.50;25.70;;;;;;5090410;28;20924;-60
2021/12/18 05:56:13;;;;;;;61.50;28.57;;;7.50;80.80;;;;;;5069926;28;20205;-60
2021/12/18 05:58:41;;;;;;;67.40;34.13;;;7.60;99.90;;;;;;5069830;28;20252;-60
2021/12/18 06:01:08;;;;;;;69.03;35.37;;;7.60;99.90;;;;;;5068709;28;21070;-60
2021/12/18 06:03:35;;;;;;;90.57;50.27;;;7.60;99.90;;;;;;5073335;28;20248;-60
2021/12/18 06:06:02;;;;;;;92.80;48.47;;;7.60;99.90;;;;;;5076189;28;20207;-60
2021/12/18 06:08:32;;;;;;;92.83;49.27;;;7.60;99.90;;;;;;5086821;28;20218;-60
2021/12/18 06:11:05;;;;;;;67.23;33.67;;;7.50;99.90;;;;;;5085067;28;20253;-60
2021/12/18 06:13:32;;;;;;;62.13;31.93;;;7.60;99.90;;;;;;5082268;28;20200;-61
2021/12/18 06:15:59;;;;;;;75.40;38.03;;;7.60;99.90;;;;;;5084939;28;20209;-59
2021/12/18 06:18:26;;;;;;;57.10;26.60;;;7.60;99.90;;;;;;5083753;28;20220;-60
2021/12/18 06:20:53;;;;;;;59.27;25.83;;;7.60;55.80;;;;;;5083274;28;20226;-59
2021/12/18 06:23:20;;;;;;;71.40;32.47;;;7.60;1.00;;;;;;5083333;28;20198;-60
2021/12/18 06:25:46;;;;;;;71.63;34.43;;;7.60;1.00;;;;;;5083116;28;20286;-60
2021/12/18 06:28:13;;;;;;;75.47;33.87;;;7.60;1.00;;;;;;5083371;28;20198;-60
2021/12/18 06:30:40;;;;;;;66.97;31.60;;;7.60;1.00;;;;;;5082840;28;20257;-59
2021/12/18 06:33:07;;;;;;;60.17;28.13;;;7.50;1.00;;;;;;5085888;28;20230;-59
2021/12/18 06:35:34;;;;;;;66.20;33.10;;;7.50;1.00;;;;;;5083922;28;20686;-59
2021/12/18 06:38:02;;;;;;;67.70;32.77;;;7.50;1.00;;;;;;5080890;28;20216;-60
2021/12/18 06:40:29;;;;;;;62.23;27.97;;;7.50;1.00;;;;;;5073273;28;20252;-60
2021/12/18 06:42:56;;;;;;;56.50;26.87;;;7.50;1.00;;;;;;5084258;28;20206;-60
2021/12/18 06:45:23;;;;;;;56.07;26.00;;;7.50;1.00;;;;;;5077536;28;20240;-59
2021/12/18 06:47:50;;;;;;;56.37;26.27;;;7.60;4.80;;;;;;5083024;28;20218;-59
2021/12/18 06:50:17;;;;;;;54.23;26.07;;;7.60;26.90;;;;;;5102050;28;20693;-60
2021/12/18 06:52:44;;;;;;;57.37;25.33;;;7.60;72.80;;;;;;5085275;28;20665;-59
2021/12/18 06:55:11;;;;;;;52.13;24.53;;;7.60;73.10;;;;;;5084176;28;20279;-59
2021/12/18 06:57:38;;;;;;;54.57;25.27;;;7.60;99.90;;;;;;5085064;28;20704;-60
2021/12/18 07:00:08;;;;;;;57.17;25.83;;;7.70;99.90;;;;;;5081198;28;20201;-59
2021/12/18 07:02:35;;;;;;;54.77;25.67;;;7.60;99.90;;;;;;5082095;28;20297;-59
2021/12/18 07:05:02;;;;;;;50.13;24.93;;;7.70;99.90;;;;;;5083455;28;20201;-59
2021/12/18 07:07:29;;;;;;;54.90;25.30;;;7.70;99.90;;;;;;5086113;28;20273;-59
2021/12/18 07:09:56;;;;;;;52.93;24.97;;;7.70;99.90;;;;;;5068314;28;22172;-59
2021/12/18 07:12:23;;;;;;;59.83;27.47;;;7.70;99.90;;;;;;5071239;28;20202;-59
2021/12/18 07:14:50;;;;;;;64.03;26.53;;;7.70;99.90;;;;;;5086984;28;20186;-59
2021/12/18 07:17:17;;;;;;;58.57;25.80;;;7.60;99.90;;;;;;5072493;28;20311;-59
2021/12/18 07:19:44;;;;;;;59.27;26.40;;;7.60;99.90;;;;;;5083987;28;20232;-59
2021/12/18 07:22:11;;;;;;;55.33;24.83;;;7.70;99.90;;;;;;5083082;28;20201;-59
2021/12/18 07:24:38;;;;;;;60.77;24.57;;;7.70;99.90;;;;;;5089503;28;20213;-59
2021/12/18 07:27:05;;;;;;;60.07;25.93;;;7.70;99.90;;;;;;5098812;28;20210;-60
2021/12/18 07:29:33;;;;;;;58.47;25.07;;;7.60;99.90;;;;;;5081975;28;20336;-59
2021/12/18 07:32:00;;;;;;;57.30;25.33;;;7.70;99.90;;;;;;5078310;28;21085;-59
2021/12/18 07:34:47;;;;;;;56.87;27.93;;;7.70;99.90;;;;;;5084402;28;20309;-59
2021/12/18 07:37:14;;;;;;;52.27;25.43;;;7.70;99.90;;;;;;5087911;28;20642;-59
2021/12/18 07:39:41;;;;;;;50.50;25.77;;;7.70;99.90;;;;;;5083821;28;20734;-60
2021/12/18 07:42:08;;;;;;;39.20;22.50;;;7.70;99.90;;;;;;5084629;28;20237;-60
2021/12/18 07:44:35;;;;;;;31.73;15.43;;;7.70;99.90;;;;;;5082324;28;20193;-59
2021/12/18 07:47:02;;;;;;;31.50;14.53;;;7.70;99.90;;;;;;5084632;28;20251;-59
2021/12/18 07:49:29;;;;;;;23.73;13.13;;;7.70;99.90;;;;;;5083919;28;20301;-59
2021/12/18 07:52:01;;;;;;;25.47;11.70;;;7.70;99.90;;;;;;5098072;28;20301;-60
2021/12/18 07:54:29;;;;;;;22.40;11.60;;;7.70;99.90;;;;;;5083405;28;20197;-60
2021/12/18 07:56:56;;;;;;;20.80;10.27;;;7.70;99.90;;;;;;5082603;28;20198;-60
2021/12/18 07:59:23;;;;;;;18.20;10.30;;;7.70;99.90;;;;;;5083191;28;20216;-60
2021/12/18 08:01:50;;;;;;;20.93;9.20;;;7.70;99.90;;;;;;5083261;28;20281;-60
2021/12/18 08:04:17;;;;;;;17.33;9.47;;;7.70;99.90;;;;;;5077718;28;20317;-60
2021/12/18 08:06:44;;;;;;;15.93;8.00;;;7.80;99.90;;;;;;5099919;28;20498;-59
2021/12/18 08:09:11;;;;;;;15.03;8.50;;;7.70;99.90;;;;;;5085059;28;20203;-60
2021/12/18 08:11:38;;;;;;;18.37;9.33;;;7.70;99.90;;;;;;5079620;28;20301;-60
2021/12/18 08:14:05;;;;;;;16.60;7.97;;;7.70;99.90;;;;;;5087024;28;20186;-60
2021/12/18 08:16:32;;;;;;;13.27;6.83;;;7.70;99.90;;;;;;5083671;28;20228;-60
2021/12/18 08:18:59;;;;;;;12.73;7.07;;;7.70;99.90;;;;;;5071948;28;20189;-60
2021/12/18 08:21:26;;;;;;;14.57;7.33;;;7.70;99.90;;;;;;5082154;28;20250;-60
2021/12/18 08:23:53;;;;;;;14.97;6.70;;;7.70;99.90;;;;;;5084357;28;20252;-60
2021/12/18 08:26:21;;;;;;;13.03;6.80;;;7.70;99.90;;;;;;5081694;28;20658;-60
2021/12/18 08:28:48;;;;;;;11.97;6.93;;;7.60;99.90;;;;;;5079247;28;20310;-61
2021/12/18 08:31:15;;;;;;;12.30;6.20;;;7.80;99.90;;;;;;5079538;28;20191;-60
2021/12/18 08:33:42;;;;;;;11.47;5.87;;;7.80;99.90;;;;;;5084299;28;20604;-60
2021/12/18 08:36:09;;;;;;;10.30;5.93;;;7.80;96.90;;;;;;5082966;28;20273;-61
2021/12/18 08:38:36;;;;;;;9.50;5.80;;;7.80;1.00;;;;;;5086284;28;20214;-60
2021/12/18 08:41:03;;;;;;;8.67;5.10;;;7.90;1.00;;;;;;5084583;28;20197;-60
2021/12/18 08:43:30;;;;;;;8.77;5.47;;;7.90;1.00;;;;;;5082313;28;20298;-60
2021/12/18 08:45:57;;;;;;;8.97;5.93;;;7.90;1.00;;;;;;5082478;28;20825;-60
2021/12/18 08:48:24;;;;;;;9.20;5.00;;;7.90;1.00;;;;;;5083966;28;20190;-60
2021/12/18 08:50:51;;;;;;;10.50;5.67;;;7.90;1.00;;;;;;5083119;28;20256;-60
2021/12/18 08:53:18;;;;;;;12.23;6.30;;;8.00;1.00;;;;;;5084934;28;20225;-60
2021/12/18 08:55:45;;;;;;;10.07;5.60;;;8.10;1.00;;;;;;5085084;28;20190;-60
2021/12/18 08:58:12;;;;;;;8.53;5.50;;;8.10;99.90;;;;;;5068384;28;20224;-60
2021/12/18 09:00:40;;;;;;;9.73;5.60;;;8.10;47.20;;;;;;5087126;28;20678;-60
2021/12/18 09:03:07;;;;;;;7.80;5.27;;;8.10;1.00;;;;;;5087278;28;20202;-60
2021/12/18 09:05:34;;;;;;;9.87;5.23;;;8.10;1.00;;;;;;5083421;28;20733;-60
2021/12/18 09:08:01;;;;;;;7.90;4.97;;;8.00;1.00;;;;;;5085890;28;20222;-60
2021/12/18 09:10:28;;;;;;;9.50;6.00;;;8.00;99.90;;;;;;5087304;28;20210;-60
2021/12/18 09:12:56;;;;;;;7.40;5.00;;;8.00;1.00;;;;;;5086374;28;20194;-60
2021/12/18 09:15:23;;;;;;;6.67;5.00;;;8.00;1.00;;;;;;5086489;28;20186;-60
2021/12/18 09:17:50;;;;;;;10.33;5.00;;;8.00;1.00;;;;;;5084895;28;20225;-60
2021/12/18 09:20:17;;;;;;;8.87;5.13;;;8.00;99.90;;;;;;5083257;28;20853;-59
2021/12/18 09:22:44;;;;;;;7.60;4.87;;;8.00;99.90;;;;;;5085594;28;20311;-60
2021/12/18 09:25:12;;;;;;;9.33;6.30;;;8.00;38.70;;;;;;5083723;28;21008;-59
2021/12/18 09:27:39;;;;;;;8.60;5.50;;;8.10;1.00;;;;;;5086055;28;21000;-61
2021/12/18 09:30:11;;;;;;;16.33;10.80;;;7.90;99.90;;;;;;5083797;28;20249;-60
2021/12/18 09:32:39;;;;;;;13.03;8.60;;;7.90;48.00;;;;;;5083677;28;20221;-60
2021/12/18 09:35:08;;;;;;;12.57;8.13;;;8.00;99.90;;;;;;5085583;28;20283;-60
2021/12/18 09:37:35;;;;;;;8.50;5.53;;;8.00;99.90;;;;;;5086634;28;20190;-60
2021/12/18 09:40:05;;;;;;;8.20;4.53;;;8.00;1.00;;;;;;5085492;28;20248;-60
2021/12/18 09:42:32;;;;;;;9.80;5.10;;;8.00;1.00;;;;;;5086330;28;20194;-59
2021/12/18 09:44:59;;;;;;;7.43;4.53;;;8.00;1.00;;;;;;5084827;28;20214;-60
2021/12/18 09:47:27;;;;;;;11.03;8.67;;;8.10;1.00;;;;;;5083472;28;20230;-60
2021/12/18 09:49:55;;;;;;;8.67;6.20;;;8.00;99.90;;;;;;5087018;28;20217;-60
2021/12/18 09:52:22;;;;;;;6.77;4.33;;;8.00;19.30;;;;;;5088524;28;20198;-60
2021/12/18 09:54:49;;;;;;;7.47;4.20;;;8.00;1.00;;;;;;5081748;28;20198;-60
2021/12/18 09:57:16;;;;;;;8.03;5.73;;;8.10;1.00;;;;;;5086493;28;20248;-61
2021/12/18 09:59:43;;;;;;;6.63;4.77;;;8.20;1.00;;;;;;5083869;28;20244;-60
2021/12/18 10:02:10;;;;;;;4.57;3.40;;;8.20;88.80;;;;;;5067667;28;20302;-60
2021/12/18 10:04:38;;;;;;;10.10;5.80;;;8.20;1.00;;;;;;5084012;28;20234;-60
2021/12/18 10:07:18;;;;;;;6.33;4.30;;;8.20;1.00;;;;;;5086050;28;20195;-60
2021/12/18 10:09:46;;;;;;;7.00;4.70;;;8.30;99.90;;;;;;5085544;28;20223;-60
2021/12/18 10:12:21;;;;;;;6.23;4.47;;;8.30;99.90;;;;;;5086555;28;20190;-60
2021/12/18 10:14:57;;;;;;;8.20;6.20;;;8.30;99.90;;;;;;5086374;28;20225;-60
2021/12/18 10:17:29;;;;;;;8.23;4.27;;;8.30;1.00;;;;;;5086169;28;20527;-61
2021/12/18 10:20:21;;;;;;;5.97;4.17;;;8.30;97.00;;;;;;5085198;28;20263;-60
2021/12/18 10:22:55;;;;;;;14.60;10.43;;;8.30;1.00;;;;;;5088973;28;20202;-60
2021/12/18 10:25:29;;;;;;;5.43;4.53;;;8.40;1.00;;;;;;5075892;28;20289;-60
2021/12/18 10:28:17;;;;;;;6.47;4.37;;;8.30;1.00;;;;;;5084177;28;20209;-60
2021/12/18 10:30:53;;;;;;;5.93;4.63;;;8.40;1.00;;;;;;5084994;28;20233;-60
2021/12/18 10:33:28;;;;;;;6.20;4.20;;;8.30;99.90;;;;;;5084273;28;20267;-60
2021/12/18 10:35:58;;;;;;;4.97;4.07;;;8.20;99.90;;;;;;5081216;28;20295;-60
2021/12/18 10:38:55;;;;;;;3.90;3.37;;;8.20;99.90;;;;;;5085542;28;20263;-60
2021/12/18 10:41:31;;;;;;;4.83;3.13;;;8.30;99.90;;;;;;5074228;28;20253;-60
2021/12/18 10:44:00;;;;;;;4.90;3.10;;;8.30;99.90;;;;;;5101517;28;20217;-60
2021/12/18 10:46:29;;;;;;;4.70;2.90;;;8.20;70.80;;;;;;5080759;28;20217;-60
2021/12/18 10:49:03;;;;;;;5.93;3.20;;;8.10;1.00;;;;;;5085435;28;20191;-60
2021/12/18 10:51:32;;;;;;;4.00;2.57;;;8.10;1.00;;;;;;5101155;28;20211;-60
2021/12/18 10:54:04;;;;;;;4.97;2.77;;;8.00;1.00;;;;;;5101640;28;20341;-60
2021/12/18 10:56:52;;;;;;;5.83;3.73;;;8.00;34.20;;;;;;5100459;28;20725;-60
2021/12/18 10:59:32;;;;;;;4.53;2.77;;;8.00;1.00;;;;;;5100266;28;21694;-60
2021/12/18 11:02:11;;;;;;;4.70;2.80;;;8.00;1.00;;;;;;5084058;28;20190;-61
2021/12/18 11:04:39;;;;;;;3.97;2.70;;;8.10;39.50;;;;;;5086027;28;20237;-60
2021/12/18 11:07:31;;;;;;;3.03;2.10;;;8.20;99.90;;;;;;5084638;28;20214;-60
2021/12/18 11:15:55;;;;;;;3.43;2.90;;;8.00;1.00;;;;;;5082041;28;20210;-60
2021/12/18 11:18:23;;;;;;;5.47;4.10;;;7.90;1.00;;;;;;5084743;28;20595;-59
2021/12/18 11:20:52;;;;;;;4.80;3.83;;;7.80;1.00;;;;;;5085375;28;20334;-60
2021/12/18 11:23:36;;;;;;;6.13;4.10;;;7.90;1.00;;;;;;5083814;28;20200;-60
2021/12/18 11:26:03;;;;;;;5.70;4.60;;;8.00;1.00;;;;;;5077128;28;20194;-60
2021/12/18 11:28:31;;;;;;;5.87;4.23;;;8.00;1.00;;;;;;5084784;28;20683;-61
2021/12/18 11:30:58;;;;;;;8.13;7.33;;;8.00;1.00;;;;;;5067426;28;20277;-60
2021/12/18 11:33:26;;;;;;;8.30;5.50;;;8.00;1.00;;;;;;5075500;28;20190;-60
2021/12/18 11:35:53;;;;;;;4.23;3.77;;;8.10;1.00;;;;;;5086456;28;20194;-60
2021/12/18 11:38:20;;;;;;;4.70;3.13;;;8.30;1.00;;;;;;5086700;28;20270;-61
2021/12/18 11:40:49;;;;;;;4.43;3.87;;;8.30;99.90;;;;;;5083428;28;20220;-61
2021/12/18 11:43:36;;;;;;;4.90;3.80;;;8.20;99.90;;;;;;5072979;28;20225;-61
2021/12/18 11:46:30;;;;;;;5.60;3.90;;;8.20;45.70;;;;;;5079087;28;20574;-59
2021/12/18 11:49:09;;;;;;;4.90;3.87;;;8.20;99.90;;;;;;5081089;28;20187;-59
2021/12/18 11:51:38;;;;;;;7.73;5.87;;;8.20;99.90;;;;;;5083020;28;20554;-59
2021/12/18 11:54:41;;;;;;;4.40;4.00;;;8.20;99.90;;;;;;5082078;28;20194;-59
2021/12/18 11:57:10;;;;;;;4.93;4.10;;;8.30;99.90;;;;;;5082183;28;20200;-60
2021/12/18 11:59:43;;;;;;;5.73;4.33;;;8.40;99.90;;;;;;5078062;28;20187;-60
2021/12/18 12:02:13;;;;;;;5.33;3.30;;;8.40;65.30;;;;;;5080391;28;20584;-60
2021/12/18 12:05:05;;;;;;;4.37;3.67;;;8.50;1.00;;;;;;5093397;28;20194;-60
2021/12/18 12:07:34;;;;;;;4.60;3.80;;;8.60;1.00;;;;;;5080689;28;20187;-60
2021/12/18 12:10:45;;;;;;;3.77;3.03;;;8.50;1.00;;;;;;5079905;28;20220;-60
2021/12/18 12:13:10;;;;;;;5.53;4.93;;;8.60;1.00;;;;;;5079439;28;20190;-60
2021/12/18 12:15:51;;;;;;;7.83;4.93;;;8.60;1.00;;;;;;5074577;28;20232;-60
2021/12/18 12:18:20;;;;;;;5.93;4.70;;;8.60;1.00;;;;;;5079579;28;20236;-60
2021/12/18 12:20:48;;;;;;;7.23;4.90;;;8.70;1.00;;;;;;5076038;28;20742;-60
2021/12/18 12:23:15;;;;;;;6.73;4.93;;;8.70;1.00;;;;;;5080367;28;20292;-60
2021/12/18 12:25:49;;;;;;;5.20;3.80;;;8.70;1.00;;;;;;5081649;28;20272;-60
2021/12/18 12:28:23;;;;;;;4.60;3.47;;;8.90;1.00;;;;;;5091516;28;20193;-61
2021/12/18 12:31:00;;;;;;;4.20;3.50;;;8.80;99.90;;;;;;5075745;28;20266;-60
2021/12/18 12:33:35;;;;;;;4.00;3.23;;;8.80;99.90;;;;;;5071503;28;20297;-60
2021/12/18 12:36:12;;;;;;;4.30;3.30;;;8.70;1.00;;;;;;5082313;28;20223;-60
2021/12/18 12:38:55;;;;;;;5.80;4.70;;;8.60;1.00;;;;;;5069674;28;20210;-60
2021/12/18 12:41:39;;;;;;;7.83;6.13;;;8.60;1.00;;;;;;5063634;28;20194;-60
2021/12/18 12:44:15;;;;;;;6.37;4.43;;;8.60;1.00;;;;;;5075667;28;20600;-61
2021/12/18 12:46:44;;;;;;;4.23;3.60;;;8.50;1.00;;;;;;5065564;28;20245;-61
2021/12/18 12:49:18;;;;;;;6.37;4.77;;;8.50;1.00;;;;;;5071652;28;20658;-60
2021/12/18 12:51:57;;;;;;;4.53;3.70;;;8.40;1.00;;;;;;5078667;28;20224;-60
2021/12/18 12:54:48;;;;;;;4.60;3.80;;;8.40;1.00;;;;;;5077536;28;20198;-61
2021/12/18 12:57:28;;;;;;;3.80;2.93;;;8.50;1.00;;;;;;5079490;28;20183;-60
2021/12/18 13:00:15;;;;;;;4.13;3.27;;;8.40;99.90;;;;;;5078860;28;20212;-60
2021/12/18 13:02:59;;;;;;;5.90;4.47;;;8.40;1.00;;;;;;5075840;28;20218;-60
2021/12/18 13:05:42;;;;;;;5.27;4.10;;;8.30;1.00;;;;;;5077839;28;20204;-60
2021/12/18 13:08:09;;;;;;;8.33;4.90;;;8.20;1.00;;;;;;5064269;28;20226;-60
2021/12/18 13:10:38;;;;;;;5.50;4.67;;;8.10;1.00;;;;;;5079383;28;20230;-60
2021/12/18 13:13:14;;;;;;;5.57;4.77;;;8.00;1.00;;;;;;5096851;28;20206;-61
2021/12/18 13:16:06;;;;;;;6.30;4.13;;;7.90;90.80;;;;;;5078419;28;20268;-58
2021/12/18 13:18:53;;;;;;;5.30;3.90;;;7.70;99.90;;;;;;5095077;28;20202;-60
2021/12/18 13:21:28;;;;;;;5.33;4.10;;;7.60;99.90;;;;;;5078965;28;20287;-59
2021/12/18 13:23:55;;;;;;;4.50;4.07;;;7.60;99.90;;;;;;5081553;28;20276;-61
2021/12/18 13:26:28;;;;;;;4.80;3.70;;;7.60;1.00;;;;;;5078157;28;20194;-60
2021/12/18 13:28:59;;;;;;;7.03;4.33;;;7.60;1.00;;;;;;5080613;28;20187;-61
2021/12/18 13:31:29;;;;;;;6.47;4.77;;;7.50;1.00;;;;;;5079358;28;20281;-60
2021/12/18 13:34:18;;;;;;;7.33;5.10;;;7.60;1.00;;;;;;5064614;28;20232;-60
2021/12/18 13:37:06;;;;;;;6.13;4.87;;;7.50;1.00;;;;;;5079263;28;20630;-60
2021/12/18 13:39:39;;;;;;;4.90;4.10;;;7.50;1.00;;;;;;5079470;28;20268;-60
2021/12/18 13:42:09;;;;;;;4.67;3.50;;;7.50;1.00;;;;;;5085300;28;20212;-60
2021/12/18 13:44:57;;;;;;;5.20;4.03;;;7.50;99.90;;;;;;5077226;28;21335;-60
2021/12/18 13:47:31;;;;;;;4.47;3.47;;;7.50;99.90;;;;;;5082373;28;20637;-60
2021/12/18 13:50:16;;;;;;;4.77;3.23;;;7.60;1.00;;;;;;5073190;28;20202;-60
2021/12/18 13:52:46;;;;;;;4.93;3.37;;;7.60;99.90;;;;;;5076804;28;20270;-60